Time;durP1;ratioP1;P1;durP2;ratioP2;P2;SDS_P1;SDS_P2;PMS_P1;PMS_P2;Temp;Humidity;BMP_temperature;BMP_pressure;BME280_temperature;BME280_humidity;BME280_pressure;Samples;Min_cycle;Max_cycle;Signal;HPM_P1;HPM_P2
2022/10/07 00:00:28;;;;;;;11.10;5.82;;;;;;;;;;5047111;28;20048;-72
2022/10/07 00:02:58;;;;;;;9.88;5.63;;;;;;;;;;5046636;28;20056;-72
2022/10/07 00:05:28;;;;;;;8.32;5.30;;;;;;;;;;5046030;28;20051;-71
2022/10/07 00:07:58;;;;;;;10.32;5.63;;;;;;;;;;5046108;28;20415;-73
2022/10/07 00:10:28;;;;;;;11.88;6.43;;;;;;;;;;5046285;28;20052;-76
2022/10/07 00:13:00;;;;;;;10.55;5.95;;;;;;;;;;5046682;28;20057;-72
2022/10/07 00:15:30;;;;;;;13.18;5.78;;;;;;;;;;5046458;28;20041;-72
2022/10/07 00:18:00;;;;;;;16.77;5.60;;;;;;;;;;5045357;28;20460;-73
2022/10/07 00:20:30;;;;;;;12.13;6.38;;;;;;;;;;5043233;28;20606;-72
2022/10/07 00:22:59;;;;;;;9.35;6.13;;;;;;;;;;5044943;28;20068;-72
2022/10/07 00:25:29;;;;;;;15.85;5.95;;;;;;;;;;5045807;28;20048;-73
2022/10/07 00:27:59;;;;;;;11.32;5.70;;;;;;;;;;5047925;28;20049;-73
2022/10/07 00:30:29;;;;;;;9.02;5.90;;;;;;;;;;5058710;28;20041;-72
2022/10/07 00:32:58;;;;;;;14.02;6.55;;;;;;;;;;5052175;28;20399;-71
2022/10/07 00:35:28;;;;;;;14.93;6.32;;;;;;;;;;5045097;28;20084;-72
2022/10/07 00:37:58;;;;;;;13.38;7.00;;;;;;;;;;5043481;28;20056;-72
2022/10/07 00:40:28;;;;;;;11.75;6.03;;;;;;;;;;5045977;28;20056;-73
2022/10/07 00:42:59;;;;;;;11.65;5.95;;;;;;;;;;5045364;28;20041;-72
2022/10/07 00:45:30;;;;;;;11.95;6.10;;;;;;;;;;5045586;28;20041;-74
2022/10/07 00:48:00;;;;;;;11.45;6.05;;;;;;;;;;5044876;28;20056;-72
2022/10/07 00:50:30;;;;;;;11.52;5.95;;;;;;;;;;5045081;28;20044;-73
2022/10/07 00:53:01;;;;;;;15.68;6.00;;;;;;;;;;5045334;28;20045;-72
2022/10/07 00:55:32;;;;;;;10.85;6.15;;;;;;;;;;5045959;28;20037;-73
2022/10/07 00:58:08;;;;;;;11.00;6.07;;;;;;;;;;5045231;28;20045;-76
2022/10/07 01:00:39;;;;;;;9.32;5.45;;;;;;;;;;5042549;28;20052;-72
2022/10/07 01:03:09;;;;;;;10.63;6.18;;;;;;;;;;5045532;28;20045;-72
2022/10/07 01:05:39;;;;;;;11.50;5.80;;;;;;;;;;5043503;28;20053;-71
2022/10/07 01:08:14;;;;;;;11.50;5.60;;;;;;;;;;5042749;28;20055;-72
2022/10/07 01:11:21;;;;;;;8.82;6.05;;;;;;;;;;5043566;28;20044;-71
2022/10/07 01:13:58;;;;;;;16.75;6.15;;;;;;;;;;5044129;28;20068;-72
2022/10/07 01:16:49;;;;;;;10.27;5.30;;;;;;;;;;5044826;28;20049;-71
2022/10/07 01:19:32;;;;;;;8.38;5.47;;;;;;;;;;5045562;28;20060;-72
2022/10/07 01:22:31;;;;;;;9.98;5.30;;;;;;;;;;5045940;28;20049;-72
2022/10/07 01:25:48;;;;;;;11.63;5.22;;;;;;;;;;5043691;28;20060;-72
2022/10/07 01:28:30;;;;;;;9.52;5.40;;;;;;;;;;5022013;28;20059;-72
2022/10/07 01:31:04;;;;;;;;;;;;;;;;;;5045003;28;20558;-71
2022/10/07 01:33:36;;;;;;;7.93;4.57;;;;;;;;;;5045730;28;19931;-72
2022/10/07 01:36:14;;;;;;;10.70;5.43;;;;;;;;;;5045855;28;20049;-72
2022/10/07 01:39:01;;;;;;;13.20;5.45;;;;;;;;;;5045521;28;20424;-71
2022/10/07 01:41:33;;;;;;;7.85;5.07;;;;;;;;;;5045699;28;20045;-72
2022/10/07 01:44:03;;;;;;;14.70;5.85;;;;;;;;;;5044861;28;20064;-73
2022/10/07 01:46:36;;;;;;;12.10;5.80;;;;;;;;;;5045941;28;20508;-72
2022/10/07 01:49:08;;;;;;;13.48;5.78;;;;;;;;;;5048546;28;20519;-71
2022/10/07 01:51:57;;;;;;;12.95;4.80;;;;;;;;;;5049464;28;20041;-71
2022/10/07 01:54:40;;;;;;;15.43;5.53;;;;;;;;;;5049309;28;20064;-71
2022/10/07 01:57:24;;;;;;;10.27;5.40;;;;;;;;;;5048947;28;20056;-72
2022/10/07 02:00:10;;;;;;;14.98;5.22;;;;;;;;;;5047656;28;20053;-72
2022/10/07 02:03:04;;;;;;;8.30;4.88;;;;;;;;;;5048371;28;20067;-71
2022/10/07 02:05:39;;;;;;;9.68;4.80;;;;;;;;;;5048087;28;20063;-73
2022/10/07 02:08:09;;;;;;;7.68;5.40;;;;;;;;;;5047988;28;20068;-72
2022/10/07 02:11:12;;;;;;;7.72;5.00;;;;;;;;;;5047499;28;20049;-71
2022/10/07 02:13:46;;;;;;;9.98;4.75;;;;;;;;;;5049012;28;20050;-72
2022/10/07 02:16:24;;;;;;;9.85;4.70;;;;;;;;;;5047854;28;20056;-73
2022/10/07 02:18:57;;;;;;;8.02;4.60;;;;;;;;;;5047016;28;20060;-73
2022/10/07 02:21:31;;;;;;;7.00;4.53;;;;;;;;;;5048805;28;20497;-71
2022/10/07 02:24:02;;;;;;;8.25;4.53;;;;;;;;;;5047678;28;20512;-73
2022/10/07 02:26:35;;;;;;;6.30;5.03;;;;;;;;;;5047083;28;20484;-75
2022/10/07 02:29:08;;;;;;;13.60;5.47;;;;;;;;;;5047285;28;20060;-72
2022/10/07 02:31:41;;;;;;;7.88;5.55;;;;;;;;;;5047122;28;20057;-72
2022/10/07 02:34:16;;;;;;;9.65;5.60;;;;;;;;;;5048690;28;20052;-71
2022/10/07 02:36:54;;;;;;;9.52;6.43;;;;;;;;;;5047238;28;20660;-71
2022/10/07 02:39:27;;;;;;;9.90;5.97;;;;;;;;;;5048487;28;20075;-72
2022/10/07 02:42:07;;;;;;;11.70;6.28;;;;;;;;;;5048374;28;20130;-72
2022/10/07 02:44:50;;;;;;;10.90;6.03;;;;;;;;;;5048810;28;20060;-72
2022/10/07 02:47:22;;;;;;;8.75;5.75;;;;;;;;;;5046848;28;20435;-72
2022/10/07 02:49:56;;;;;;;9.55;6.55;;;;;;;;;;5047703;28;20049;-71
2022/10/07 02:52:30;;;;;;;13.98;5.75;;;;;;;;;;5030694;28;20049;-71
2022/10/07 02:55:14;;;;;;;11.52;6.65;;;;;;;;;;5046695;28;20499;-72
2022/10/07 02:57:51;;;;;;;8.38;6.10;;;;;;;;;;5047809;28;20041;-71
2022/10/07 03:00:22;;;;;;;11.35;6.07;;;;;;;;;;5046682;28;20081;-72
2022/10/07 03:03:01;;;;;;;12.32;6.63;;;;;;;;;;5046355;28;20542;-70
2022/10/07 03:05:54;;;;;;;10.48;5.78;;;;;;;;;;5047916;28;20053;-71
2022/10/07 03:08:25;;;;;;;13.35;5.80;;;;;;;;;;5046824;28;20057;-72
2022/10/07 03:10:56;;;;;;;10.40;6.20;;;;;;;;;;5046823;28;20045;-72
2022/10/07 03:13:26;;;;;;;10.25;6.35;;;;;;;;;;5047971;28;20045;-71
2022/10/07 03:16:00;;;;;;;11.93;6.47;;;;;;;;;;5046706;28;20056;-72
2022/10/07 03:18:30;;;;;;;14.80;6.25;;;;;;;;;;5030695;28;20049;-72
2022/10/07 03:21:15;;;;;;;13.40;6.72;;;;;;;;;;5045724;28;20056;-72
2022/10/07 03:23:51;;;;;;;10.13;6.03;;;;;;;;;;5045563;28;20055;-72
2022/10/07 03:26:25;;;;;;;9.50;5.45;;;;;;;;;;5046406;28;20052;-72
2022/10/07 03:29:00;;;;;;;12.38;5.40;;;;;;;;;;5046326;28;20060;-72
2022/10/07 03:31:31;;;;;;;9.57;6.45;;;;;;;;;;5046159;28;20064;-72
2022/10/07 03:34:02;;;;;;;9.50;6.32;;;;;;;;;;5030170;28;20052;-71
2022/10/07 03:36:31;;;;;;;9.13;5.57;;;;;;;;;;5051127;28;20048;-72
2022/10/07 03:39:02;;;;;;;12.85;8.25;;;;;;;;;;5054545;28;20041;-72
2022/10/07 03:41:33;;;;;;;15.38;9.00;;;;;;;;;;5052579;28;20068;-72
2022/10/07 03:44:03;;;;;;;13.13;7.43;;;;;;;;;;5030463;28;20415;-72
2022/10/07 03:46:33;;;;;;;11.50;6.15;;;;;;;;;;5045488;28;20053;-72
2022/10/07 03:49:03;;;;;;;14.38;6.75;;;;;;;;;;5045861;28;20052;-72
2022/10/07 03:51:34;;;;;;;12.20;6.97;;;;;;;;;;5046020;28;20053;-72
2022/10/07 03:54:07;;;;;;;13.80;6.70;;;;;;;;;;5045385;28;20420;-72
2022/10/07 03:56:38;;;;;;;11.95;6.38;;;;;;;;;;5046419;28;20053;-72
2022/10/07 03:59:08;;;;;;;9.10;6.15;;;;;;;;;;5045428;28;20078;-71
2022/10/07 04:01:38;;;;;;;15.98;7.03;;;;;;;;;;5029424;28;20060;-71
2022/10/07 04:04:08;;;;;;;17.92;8.10;;;;;;;;;;5045597;28;20424;-72
2022/10/07 04:06:38;;;;;;;13.15;7.03;;;;;;;;;;5046261;28;20060;-72
2022/10/07 04:09:14;;;;;;;12.00;7.57;;;;;;;;;;5044569;28;20041;-71
2022/10/07 04:11:44;;;;;;;9.60;6.90;;;;;;;;;;5045675;28;20056;-71
2022/10/07 04:14:15;;;;;;;13.27;7.38;;;;;;;;;;5045896;28;20044;-71
2022/10/07 04:16:45;;;;;;;13.70;7.38;;;;;;;;;;5045541;28;20065;-71
2022/10/07 04:19:16;;;;;;;13.65;9.75;;;;;;;;;;5045285;28;20128;-71
2022/10/07 04:21:45;;;;;;;17.45;8.77;;;;;;;;;;5045814;28;20508;-72
2022/10/07 04:24:15;;;;;;;17.45;9.27;;;;;;;;;;5045297;28;20048;-72
2022/10/07 04:26:45;;;;;;;16.92;10.55;;;;;;;;;;5046526;28;20041;-71
2022/10/07 04:29:15;;;;;;;14.77;9.02;;;;;;;;;;5046466;28;20432;-71
2022/10/07 04:31:46;;;;;;;19.52;9.35;;;;;;;;;;5045320;28;20068;-71
2022/10/07 04:34:16;;;;;;;18.40;12.80;;;;;;;;;;5046523;28;20041;-72
2022/10/07 04:36:46;;;;;;;21.60;15.43;;;;;;;;;;5045793;28;20045;-73
2022/10/07 04:39:17;;;;;;;18.80;12.40;;;;;;;;;;5045117;28;20045;-72
2022/10/07 04:41:55;;;;;;;15.23;7.55;;;;;;;;;;5045172;28;20049;-72
2022/10/07 04:44:32;;;;;;;17.45;10.73;;;;;;;;;;5045532;28;20049;-73
2022/10/07 04:47:06;;;;;;;28.02;14.40;;;;;;;;;;5044980;28;20049;-77
2022/10/07 04:49:38;;;;;;;17.17;11.43;;;;;;;;;;5044933;28;20048;-75
2022/10/07 04:52:10;;;;;;;25.60;14.38;;;;;;;;;;5045258;28;20063;-74
2022/10/07 04:54:42;;;;;;;24.83;15.15;;;;;;;;;;5044561;28;20051;-74
2022/10/07 04:57:15;;;;;;;14.65;10.00;;;;;;;;;;5046233;28;20045;-73
2022/10/07 04:59:45;;;;;;;18.15;12.50;;;;;;;;;;5044956;28;20053;-72
2022/10/07 05:02:19;;;;;;;22.02;12.75;;;;;;;;;;5045363;28;20056;-73
2022/10/07 05:04:49;;;;;;;13.20;9.77;;;;;;;;;;5046397;28;20056;-73
2022/10/07 05:07:19;;;;;;;14.85;9.55;;;;;;;;;;5045700;28;20057;-72
2022/10/07 05:09:49;;;;;;;14.88;9.75;;;;;;;;;;5045693;28;20074;-74
2022/10/07 05:12:19;;;;;;;10.85;7.28;;;;;;;;;;5044900;28;20424;-75
2022/10/07 05:14:50;;;;;;;12.68;7.70;;;;;;;;;;5045098;28;20400;-74
2022/10/07 05:17:20;;;;;;;10.57;7.00;;;;;;;;;;5044812;28;20558;-73
2022/10/07 05:19:51;;;;;;;10.23;6.70;;;;;;;;;;5045084;28;20793;-73
2022/10/07 05:22:21;;;;;;;11.75;5.60;;;;;;;;;;5047993;28;20491;-73
2022/10/07 05:24:52;;;;;;;9.82;5.20;;;;;;;;;;5048648;28;20056;-72
2022/10/07 05:27:22;;;;;;;4.13;2.33;;;;;;;;;;5049043;28;20424;-73
2022/10/07 05:29:54;;;;;;;4.38;2.10;;;;;;;;;;5049256;28;20056;-75
2022/10/07 05:32:24;;;;;;;15.45;2.75;;;;;;;;;;5049876;28;20052;-73
2022/10/07 05:34:54;;;;;;;4.88;1.70;;;;;;;;;;5048140;28;20538;-73
2022/10/07 05:37:24;;;;;;;6.47;2.05;;;;;;;;;;5048660;28;20068;-73
2022/10/07 05:39:54;;;;;;;10.48;2.03;;;;;;;;;;5048428;28;20519;-72
2022/10/07 05:42:24;;;;;;;2.75;1.58;;;;;;;;;;5049449;28;20051;-72
2022/10/07 05:44:56;;;;;;;7.68;1.83;;;;;;;;;;5047891;28;20048;-72
2022/10/07 05:47:26;;;;;;;3.67;1.73;;;;;;;;;;5048476;28;20064;-72
2022/10/07 05:49:57;;;;;;;3.17;1.48;;;;;;;;;;5048631;28;20055;-73
2022/10/07 05:52:29;;;;;;;4.88;1.60;;;;;;;;;;5048824;28;20057;-73
2022/10/07 05:54:59;;;;;;;3.33;1.50;;;;;;;;;;5048227;28;20429;-73
2022/10/07 05:57:30;;;;;;;1.58;1.40;;;;;;;;;;5047671;28;20076;-73
2022/10/07 06:00:03;;;;;;;2.05;1.25;;;;;;;;;;5048651;28;20056;-73
2022/10/07 06:02:40;;;;;;;3.40;1.30;;;;;;;;;;5053168;28;20049;-72
2022/10/07 06:05:14;;;;;;;4.20;1.65;;;;;;;;;;5049156;28;20072;-71
2022/10/07 06:07:45;;;;;;;2.67;1.98;;;;;;;;;;5047511;28;20473;-73
2022/10/07 06:13:07;;;;;;;4.70;2.55;;;;;;;;;;5048149;28;20056;-73
2022/10/07 06:15:40;;;;;;;1.90;1.23;;;;;;;;;;5048235;28;20049;-72
2022/10/07 06:18:10;;;;;;;2.60;1.55;;;;;;;;;;5048672;28;20055;-72
2022/10/07 06:20:40;;;;;;;4.22;1.20;;;;;;;;;;5048585;28;20484;-73
2022/10/07 06:23:09;;;;;;;1.85;1.17;;;;;;;;;;5047385;28;20060;-72
2022/10/07 06:25:41;;;;;;;0.80;0.80;;;;;;;;;;5047327;28;20440;-73
2022/10/07 06:28:13;;;;;;;1.48;1.00;;;;;;;;;;5048131;28;20049;-71
2022/10/07 06:30:43;;;;;;;1.45;1.25;;;;;;;;;;5048321;28;20063;-72
2022/10/07 06:33:13;;;;;;;2.42;1.67;;;;;;;;;;5046269;28;20045;-71
2022/10/07 06:35:44;;;;;;;1.90;1.08;;;;;;;;;;5031587;28;20511;-71
2022/10/07 06:38:15;;;;;;;4.50;1.10;;;;;;;;;;5047664;28;20053;-71
2022/10/07 06:41:00;;;;;;;2.22;1.30;;;;;;;;;;5046859;28;20423;-72
2022/10/07 06:43:33;;;;;;;2.10;1.17;;;;;;;;;;5046074;28;20049;-72
2022/10/07 06:46:19;;;;;;;4.43;1.45;;;;;;;;;;5047107;28;20060;-71
2022/10/07 06:48:52;;;;;;;3.17;1.10;;;;;;;;;;5047520;28;20053;-71
2022/10/07 06:51:22;;;;;;;2.20;0.77;;;;;;;;;;5048054;28;20045;-74
2022/10/07 06:53:56;;;;;;;1.23;0.93;;;;;;;;;;5047264;28;20061;-72
2022/10/07 06:56:27;;;;;;;2.88;1.23;;;;;;;;;;5046733;28;20060;-73
2022/10/07 06:58:58;;;;;;;1.92;1.02;;;;;;;;;;5047147;28;20538;-71
2022/10/07 07:01:36;;;;;;;7.03;1.48;;;;;;;;;;5047273;28;20072;-72
2022/10/07 07:04:06;;;;;;;2.50;1.20;;;;;;;;;;5047070;28;20075;-71
2022/10/07 07:06:37;;;;;;;1.20;0.82;;;;;;;;;;5046182;28;20516;-74
2022/10/07 07:09:09;;;;;;;1.42;1.17;;;;;;;;;;5030431;28;20068;-71
2022/10/07 07:11:44;;;;;;;1.75;1.52;;;;;;;;;;5046545;28;20053;-72
2022/10/07 07:14:20;;;;;;;2.92;1.90;;;;;;;;;;5046542;28;20053;-73
2022/10/07 07:17:00;;;;;;;1.77;1.63;;;;;;;;;;5046611;28;20385;-72
2022/10/07 07:19:31;;;;;;;5.43;2.10;;;;;;;;;;5046728;28;20056;-72
2022/10/07 07:22:01;;;;;;;2.40;1.63;;;;;;;;;;5046656;28;20511;-73
2022/10/07 07:24:31;;;;;;;1.00;0.85;;;;;;;;;;5046836;28;20052;-74
2022/10/07 07:27:01;;;;;;;3.88;1.85;;;;;;;;;;5046446;28;20057;-71
2022/10/07 07:29:33;;;;;;;2.17;1.50;;;;;;;;;;5045974;28;20530;-72
2022/10/07 07:32:03;;;;;;;3.58;1.65;;;;;;;;;;5046148;28;20049;-70
2022/10/07 07:34:37;;;;;;;3.00;1.75;;;;;;;;;;5046577;28;20057;-72
2022/10/07 07:37:09;;;;;;;4.03;2.10;;;;;;;;;;5047049;28;20057;-70
2022/10/07 07:39:45;;;;;;;2.53;1.90;;;;;;;;;;5045346;28;20059;-71
2022/10/07 07:42:17;;;;;;;5.28;2.35;;;;;;;;;;5046703;28;20508;-71
2022/10/07 07:44:48;;;;;;;3.45;2.20;;;;;;;;;;5047441;28;20400;-71
2022/10/07 07:47:21;;;;;;;2.72;1.83;;;;;;;;;;5046180;28;20061;-71
2022/10/07 07:49:51;;;;;;;3.97;1.90;;;;;;;;;;5046519;28;20057;-72
2022/10/07 07:52:27;;;;;;;;;;;;;;;;;;5046593;28;20427;-72
2022/10/07 07:54:59;;;;;;;4.82;1.63;;;;;;;;;;5045969;28;19932;-72
2022/10/07 07:57:30;;;;;;;3.22;1.40;;;;;;;;;;5045835;28;20052;-70
2022/10/07 08:00:06;;;;;;;2.50;1.52;;;;;;;;;;5046121;28;20053;-71
2022/10/07 08:02:52;;;;;;;;;;;;;;;;;;5046255;28;20053;-71
2022/10/07 08:05:23;;;;;;;1.48;1.38;;;;;;;;;;5030189;28;19920;-71
2022/10/07 08:07:56;;;;;;;3.72;1.42;;;;;;;;;;5045704;28;20049;-71
2022/10/07 08:10:28;;;;;;;4.70;1.60;;;;;;;;;;5045545;28;20061;-72
2022/10/07 08:12:59;;;;;;;4.97;1.67;;;;;;;;;;5044894;28;20049;-72
2022/10/07 08:15:29;;;;;;;1.98;1.20;;;;;;;;;;5045287;28;20824;-73
2022/10/07 08:17:59;;;;;;;3.40;1.30;;;;;;;;;;5045644;28;20496;-73
2022/10/07 08:20:29;;;;;;;4.53;1.40;;;;;;;;;;5045176;28;20076;-71
2022/10/07 08:23:01;;;;;;;1.75;1.33;;;;;;;;;;5045841;28;20056;-71
2022/10/07 08:25:32;;;;;;;1.35;1.00;;;;;;;;;;5044942;28;20063;-72
2022/10/07 08:28:05;;;;;;;1.50;1.40;;;;;;;;;;5045130;28;20443;-72
2022/10/07 08:30:36;;;;;;;4.75;1.52;;;;;;;;;;5045522;28;20111;-71
2022/10/07 08:33:06;;;;;;;2.00;1.45;;;;;;;;;;5045116;28;20049;-72
2022/10/07 08:35:36;;;;;;;1.67;1.30;;;;;;;;;;5046670;28;20045;-72
2022/10/07 08:38:07;;;;;;;2.20;1.42;;;;;;;;;;5045918;28;20816;-72
2022/10/07 08:40:50;;;;;;;2.33;1.27;;;;;;;;;;5046378;28;20041;-71
2022/10/07 08:43:23;;;;;;;3.67;1.40;;;;;;;;;;5046431;28;20527;-72
2022/10/07 08:45:54;;;;;;;5.53;1.98;;;;;;;;;;5045971;28;20044;-71
2022/10/07 08:48:32;;;;;;;3.85;1.90;;;;;;;;;;5046823;28;20348;-73
2022/10/07 08:51:24;;;;;;;1.83;1.33;;;;;;;;;;5046199;28;20041;-71
2022/10/07 08:53:59;;;;;;;6.10;1.80;;;;;;;;;;5045618;28;20075;-71
2022/10/07 08:56:32;;;;;;;1.88;1.40;;;;;;;;;;5044197;28;20061;-71
2022/10/07 08:59:10;;;;;;;3.60;1.30;;;;;;;;;;5045634;28;20052;-71
2022/10/07 09:02:15;;;;;;;3.25;1.40;;;;;;;;;;5046031;28;20048;-74
2022/10/07 09:05:00;;;;;;;3.35;1.60;;;;;;;;;;5045804;28;20041;-71
2022/10/07 09:07:33;;;;;;;3.97;1.92;;;;;;;;;;5045633;28;20052;-73
2022/10/07 09:10:09;;;;;;;4.75;1.45;;;;;;;;;;5046177;28;20049;-71
2022/10/07 09:13:02;;;;;;;3.25;1.83;;;;;;;;;;5046699;28;20492;-70
2022/10/07 09:15:42;;;;;;;5.68;1.88;;;;;;;;;;5046518;28;20037;-72
2022/10/07 09:18:38;;;;;;;2.85;1.83;;;;;;;;;;5045760;28;20480;-71
2022/10/07 09:21:16;;;;;;;2.58;1.70;;;;;;;;;;5043820;28;20069;-70
2022/10/07 09:23:47;;;;;;;4.93;1.83;;;;;;;;;;5045498;28;20070;-72
2022/10/07 09:26:18;;;;;;;4.93;2.40;;;;;;;;;;5046218;28;20060;-72
2022/10/07 09:28:49;;;;;;;8.63;2.28;;;;;;;;;;5045781;28;20056;-73
2022/10/07 09:31:22;;;;;;;2.03;1.67;;;;;;;;;;5045929;28;20049;-72
2022/10/07 09:33:53;;;;;;;2.92;1.98;;;;;;;;;;5044471;28;20512;-72
2022/10/07 09:36:24;;;;;;;4.28;2.03;;;;;;;;;;5045914;28;20500;-72
2022/10/07 09:38:55;;;;;;;6.63;2.30;;;;;;;;;;5045276;28;20056;-71
2022/10/07 09:41:37;;;;;;;3.35;1.70;;;;;;;;;;5045696;28;20048;-72
2022/10/07 09:44:16;;;;;;;4.63;1.60;;;;;;;;;;5045897;28;20053;-73
2022/10/07 09:46:50;;;;;;;3.85;1.70;;;;;;;;;;5045586;28;20044;-73
2022/10/07 09:49:26;;;;;;;4.80;1.85;;;;;;;;;;5045923;28;20053;-72
2022/10/07 09:51:59;;;;;;;;;;;;;;;;;;5045012;28;20064;-72
2022/10/07 09:54:31;;;;;;;5.80;1.63;;;;;;;;;;5045347;28;19921;-73
2022/10/07 09:57:04;;;;;;;4.28;1.63;;;;;;;;;;5045654;28;20045;-72
2022/10/07 09:59:35;;;;;;;8.50;2.35;;;;;;;;;;5044246;28;20049;-71
2022/10/07 10:02:19;;;;;;;4.28;1.80;;;;;;;;;;5045457;28;20060;-72
2022/10/07 10:04:52;;;;;;;4.47;1.77;;;;;;;;;;5045741;28;20049;-73
2022/10/07 10:07:32;;;;;;;7.07;2.83;;;;;;;;;;5045397;28;20678;-73
2022/10/07 10:10:20;;;;;;;9.50;2.58;;;;;;;;;;5048744;28;20503;-75
2022/10/07 10:12:52;;;;;;;9.43;2.22;;;;;;;;;;5049122;28;20676;-72
2022/10/07 10:15:38;;;;;;;5.55;1.92;;;;;;;;;;5049113;28;20045;-72
2022/10/07 10:18:29;;;;;;;4.78;1.88;;;;;;;;;;5048682;28;20041;-71
2022/10/07 10:21:19;;;;;;;4.53;1.40;;;;;;;;;;5049147;28;20052;-72
2022/10/07 10:23:58;;;;;;;4.65;2.00;;;;;;;;;;5048431;28;20033;-75
2022/10/07 10:26:56;;;;;;;4.45;1.60;;;;;;;;;;5048455;28;20776;-74
2022/10/07 10:29:38;;;;;;;7.03;1.55;;;;;;;;;;5047149;28;20075;-72
2022/10/07 10:32:12;;;;;;;;;;;;;;;;;;5048987;28;20055;-72
2022/10/07 10:35:02;;;;;;;4.57;1.70;;;;;;;;;;5049307;28;19921;-72
2022/10/07 10:37:45;;;;;;;3.08;1.48;;;;;;;;;;5048063;28;20053;-73
2022/10/07 10:40:33;;;;;;;4.57;1.30;;;;;;;;;;5048195;28;20045;-71
2022/10/07 10:43:09;;;;;;;3.90;1.50;;;;;;;;;;5048557;28;20060;-72
2022/10/07 10:45:56;;;;;;;4.82;1.75;;;;;;;;;;5048292;28;20053;-72
2022/10/07 10:48:28;;;;;;;2.83;1.40;;;;;;;;;;5048509;28;20045;-72
2022/10/07 10:51:35;;;;;;;3.13;1.38;;;;;;;;;;5048008;28;20059;-73
2022/10/07 10:54:05;;;;;;;3.67;1.70;;;;;;;;;;5048623;28;20056;-72
2022/10/07 10:56:50;;;;;;;8.77;2.05;;;;;;;;;;5048080;28;20056;-73
2022/10/07 10:59:41;;;;;;;7.80;1.60;;;;;;;;;;5048299;28;20049;-73
2022/10/07 11:02:38;;;;;;;2.75;1.40;;;;;;;;;;5047653;28;20056;-76
2022/10/07 11:05:24;;;;;;;3.83;1.17;;;;;;;;;;5047910;28;20072;-72
2022/10/07 11:07:57;;;;;;;5.65;1.60;;;;;;;;;;5046989;28;20048;-73
2022/10/07 11:10:33;;;;;;;3.33;1.10;;;;;;;;;;5047561;28;20049;-73
2022/10/07 11:13:29;;;;;;;2.50;1.23;;;;;;;;;;5048065;28;20045;-72
2022/10/07 11:16:11;;;;;;;7.22;1.52;;;;;;;;;;5048277;28;20048;-72
2022/10/07 11:19:19;;;;;;;5.00;1.25;;;;;;;;;;5047479;28;20630;-73
2022/10/07 11:21:51;;;;;;;2.25;1.02;;;;;;;;;;5038931;28;20119;-73
2022/10/07 11:24:45;;;;;;;4.57;1.58;;;;;;;;;;5047669;28;20044;-72
2022/10/07 11:27:20;;;;;;;11.57;4.97;;;;;;;;;;5046481;28;20080;-71
2022/10/07 11:30:16;;;;;;;8.35;1.58;;;;;;;;;;5047797;28;20045;-72
2022/10/07 11:33:07;;;;;;;7.10;1.30;;;;;;;;;;5047626;28;20045;-75
2022/10/07 11:35:49;;;;;;;3.28;1.20;;;;;;;;;;5047070;28;20516;-77
2022/10/07 11:38:30;;;;;;;4.43;1.00;;;;;;;;;;5047110;28;20363;-73
2022/10/07 11:41:28;;;;;;;3.78;1.30;;;;;;;;;;5047414;28;20493;-73
2022/10/07 11:44:07;;;;;;;3.22;1.33;;;;;;;;;;5045801;28;20040;-72
2022/10/07 11:46:43;;;;;;;4.53;1.25;;;;;;;;;;5046894;28;20045;-72
2022/10/07 11:49:30;;;;;;;3.92;1.20;;;;;;;;;;5047647;28;20057;-72
2022/10/07 11:52:03;;;;;;;3.80;1.42;;;;;;;;;;5046936;28;20053;-73
2022/10/07 11:54:53;;;;;;;3.03;1.33;;;;;;;;;;5047483;28;20041;-75
2022/10/07 11:57:30;;;;;;;2.58;1.40;;;;;;;;;;5047033;28;20045;-72
2022/10/07 12:00:07;;;;;;;8.48;2.00;;;;;;;;;;5046642;28;20045;-72
2022/10/07 12:02:43;;;;;;;2.22;1.00;;;;;;;;;;5047374;28;20037;-72
2022/10/07 12:05:48;;;;;;;5.88;1.23;;;;;;;;;;5047062;28;20041;-72
2022/10/07 12:08:29;;;;;;;4.15;1.55;;;;;;;;;;5039551;28;20068;-72
2022/10/07 12:11:21;;;;;;;5.00;1.40;;;;;;;;;;5046982;28;20044;-72
2022/10/07 12:13:53;;;;;;;7.05;1.40;;;;;;;;;;5041115;28;20072;-72
2022/10/07 12:16:23;;;;;;;5.68;1.60;;;;;;;;;;5047013;28;20049;-72
2022/10/07 12:19:09;;;;;;;5.28;1.55;;;;;;;;;;5046607;28;20053;-71
2022/10/07 12:22:02;;;;;;;5.60;1.38;;;;;;;;;;5046273;28;20111;-72
2022/10/07 12:24:35;;;;;;;1.60;0.73;;;;;;;;;;5046556;28;20048;-72
2022/10/07 12:27:28;;;;;;;2.47;1.17;;;;;;;;;;5047095;28;20400;-73
2022/10/07 12:30:01;;;;;;;15.65;10.27;;;;;;;;;;5045936;28;20048;-75
2022/10/07 12:32:59;;;;;;;3.70;1.23;;;;;;;;;;5046414;28;20045;-72
2022/10/07 12:35:33;;;;;;;5.93;1.63;;;;;;;;;;5045672;28;20049;-72
2022/10/07 12:38:15;;;;;;;4.65;1.30;;;;;;;;;;5046592;28;20048;-75
2022/10/07 12:41:14;;;;;;;4.07;1.23;;;;;;;;;;5045862;28;20523;-73
2022/10/07 12:44:05;;;;;;;4.18;1.35;;;;;;;;;;5046446;28;20060;-72
2022/10/07 12:46:49;;;;;;;4.32;1.23;;;;;;;;;;5044725;28;20052;-71
2022/10/07 12:49:41;;;;;;;3.92;1.20;;;;;;;;;;5046996;28;20041;-74
2022/10/07 12:52:32;;;;;;;3.85;1.50;;;;;;;;;;5046545;28;20049;-72
2022/10/07 12:55:13;;;;;;;3.95;1.33;;;;;;;;;;5046437;28;20048;-72
2022/10/07 12:57:51;;;;;;;5.97;1.63;;;;;;;;;;5046469;28;20037;-72
2022/10/07 13:00:23;;;;;;;4.20;1.40;;;;;;;;;;5045958;28;20072;-72
2022/10/07 13:03:17;;;;;;;3.10;1.30;;;;;;;;;;5046762;28;20045;-73
2022/10/07 13:06:33;;;;;;;3.08;1.42;;;;;;;;;;5044455;28;20060;-73
2022/10/07 13:09:15;;;;;;;4.70;1.67;;;;;;;;;;5046034;28;20074;-70
2022/10/07 13:12:16;;;;;;;4.78;1.52;;;;;;;;;;5046090;28;20045;-72
2022/10/07 13:14:57;;;;;;;4.93;1.23;;;;;;;;;;5046097;28;20048;-72
2022/10/07 13:17:50;;;;;;;6.70;1.20;;;;;;;;;;5046053;28;20057;-71
2022/10/07 13:20:32;;;;;;;6.93;1.92;;;;;;;;;;5046095;28;20547;-73
2022/10/07 13:23:21;;;;;;;2.30;1.10;;;;;;;;;;5046635;28;20048;-72
2022/10/07 13:25:58;;;;;;;3.03;1.08;;;;;;;;;;5045539;28;20052;-72
2022/10/07 13:28:47;;;;;;;3.47;1.33;;;;;;;;;;5046116;28;20045;-73
2022/10/07 13:31:24;;;;;;;11.48;6.80;;;;;;;;;;5045348;28;20049;-72
2022/10/07 13:33:56;;;;;;;5.55;1.45;;;;;;;;;;5045417;28;20056;-73
2022/10/07 13:36:29;;;;;;;4.60;1.17;;;;;;;;;;5044538;28;20041;-72
2022/10/07 13:39:21;;;;;;;3.45;1.48;;;;;;;;;;5045866;28;20049;-72
2022/10/07 13:41:55;;;;;;;3.92;1.10;;;;;;;;;;5046949;28;20076;-74
2022/10/07 13:44:29;;;;;;;2.92;1.10;;;;;;;;;;5049644;28;20053;-77
2022/10/07 13:47:05;;;;;;;3.78;1.60;;;;;;;;;;5049005;28;20064;-75
2022/10/07 13:49:42;;;;;;;6.97;3.08;;;;;;;;;;5049147;28;20037;-71
2022/10/07 13:52:38;;;;;;;3.70;1.20;;;;;;;;;;5049743;28;20048;-78
2022/10/07 13:55:31;;;;;;;4.13;1.60;;;;;;;;;;5049212;28;21007;-72
2022/10/07 13:58:05;;;;;;;6.47;1.95;;;;;;;;;;5048126;28;20049;-75
2022/10/07 14:00:43;;;;;;;4.63;1.40;;;;;;;;;;5049144;28;20067;-73
2022/10/07 14:03:18;;;;;;;4.38;1.88;;;;;;;;;;5049099;28;20056;-72
2022/10/07 14:05:52;;;;;;;2.15;1.20;;;;;;;;;;5048031;28;20060;-72
2022/10/07 14:08:27;;;;;;;2.10;1.35;;;;;;;;;;5049600;28;20044;-73
2022/10/07 14:11:06;;;;;;;4.03;1.30;;;;;;;;;;5048416;28;20033;-73
2022/10/07 14:13:37;;;;;;;3.08;1.30;;;;;;;;;;5048984;28;20049;-73
2022/10/07 14:16:22;;;;;;;1.08;0.82;;;;;;;;;;5047392;28;20061;-72
2022/10/07 14:18:52;;;;;;;2.38;0.73;;;;;;;;;;5048723;28;20052;-74
2022/10/07 14:21:22;;;;;;;3.45;1.48;;;;;;;;;;5049193;28;20053;-72
2022/10/07 14:23:52;;;;;;;4.90;2.30;;;;;;;;;;5048919;28;20045;-74
2022/10/07 14:26:23;;;;;;;1.63;1.10;;;;;;;;;;5049161;28;20051;-73
2022/10/07 14:28:53;;;;;;;4.13;1.27;;;;;;;;;;5048244;28;20426;-73
2022/10/07 14:37:19;;;;;;;2.50;1.02;;;;;;;;;;5048449;28;20033;-74
2022/10/07 14:39:51;;;;;;;4.18;1.27;;;;;;;;;;5048682;28;20049;-72
2022/10/07 14:42:37;;;;;;;2.05;0.85;;;;;;;;;;5048325;28;20037;-73
2022/10/07 14:45:14;;;;;;;1.65;0.98;;;;;;;;;;5048140;28;20048;-74
2022/10/07 14:47:45;;;;;;;3.63;1.20;;;;;;;;;;5048133;28;20053;-73
2022/10/07 14:50:18;;;;;;;4.28;1.25;;;;;;;;;;5048560;28;20048;-73
2022/10/07 14:52:50;;;;;;;5.50;1.23;;;;;;;;;;5048138;28;20516;-73
2022/10/07 14:55:28;;;;;;;6.53;1.25;;;;;;;;;;5047938;28;20048;-74
2022/10/07 14:57:58;;;;;;;3.47;1.17;;;;;;;;;;5048893;28;20037;-73
2022/10/07 15:00:29;;;;;;;2.60;1.20;;;;;;;;;;5048432;28;20041;-73
2022/10/07 15:03:06;;;;;;;1.20;0.95;;;;;;;;;;5047762;28;20412;-76
2022/10/07 15:05:37;;;;;;;7.50;1.30;;;;;;;;;;5047803;28;20068;-75
2022/10/07 15:08:10;;;;;;;3.50;1.63;;;;;;;;;;5048021;28;20049;-74
2022/10/07 15:10:41;;;;;;;2.53;1.30;;;;;;;;;;5047586;28;20500;-73
2022/10/07 15:13:11;;;;;;;4.18;1.17;;;;;;;;;;5047751;28;20512;-72
2022/10/07 15:15:44;;;;;;;5.80;1.80;;;;;;;;;;5047291;28;20072;-72
2022/10/07 15:18:14;;;;;;;3.92;1.48;;;;;;;;;;5047529;28;20060;-73
2022/10/07 15:20:43;;;;;;;2.70;1.25;;;;;;;;;;5048020;28;20053;-73
2022/10/07 15:23:14;;;;;;;1.63;1.17;;;;;;;;;;5047742;28;20063;-76
2022/10/07 15:25:45;;;;;;;4.57;1.17;;;;;;;;;;5048051;28;20053;-72
2022/10/07 15:28:16;;;;;;;3.03;1.60;;;;;;;;;;5047256;28;20508;-73
2022/10/07 15:30:46;;;;;;;2.40;1.40;;;;;;;;;;5047275;28;20139;-73
2022/10/07 15:33:16;;;;;;;3.67;1.20;;;;;;;;;;5049078;28;20092;-74
2022/10/07 15:35:46;;;;;;;2.67;1.10;;;;;;;;;;5047757;28;20535;-71
2022/10/07 15:38:15;;;;;;;1.73;0.75;;;;;;;;;;5046041;28;20045;-75
2022/10/07 15:40:56;;;;;;;4.10;1.35;;;;;;;;;;5046304;28;20056;-73
2022/10/07 15:43:27;;;;;;;4.93;1.25;;;;;;;;;;5047131;28;20052;-73